Time;durP1;ratioP1;P1;durP2;ratioP2;P2;SDS_P1;SDS_P2;PMS_P1;PMS_P2;Temp;Humidity;BMP_temperature;BMP_pressure;BME280_temperature;BME280_humidity;BME280_pressure;Samples;Min_cycle;Max_cycle;Signal;HPM_P1;HPM_P2
2021/10/06 00:01:13;;;;;;;1.23;1.00;;;11.80;99.90;;;;;;5052628;28;20222;-70
2021/10/06 00:03:39;;;;;;;2.00;1.40;;;11.80;99.90;;;;;;5067833;28;20215;-69
2021/10/06 00:06:05;;;;;;;1.20;1.10;;;11.80;99.90;;;;;;5069514;28;20246;-71
2021/10/06 00:08:31;;;;;;;1.97;1.37;;;11.80;99.90;;;;;;5032306;28;20246;-70
2021/10/06 00:10:56;;;;;;;1.70;1.30;;;11.80;99.90;;;;;;5041837;28;20227;-70
2021/10/06 00:13:22;;;;;;;2.50;1.10;;;11.90;99.90;;;;;;5034519;28;20223;-70
2021/10/06 00:15:48;;;;;;;2.07;1.30;;;11.90;99.90;;;;;;5066158;28;20246;-69
2021/10/06 00:18:15;;;;;;;1.57;1.20;;;11.90;99.90;;;;;;5042840;28;20227;-70
2021/10/06 00:20:41;;;;;;;2.83;1.30;;;11.90;99.90;;;;;;5033526;28;20549;-70
2021/10/06 00:23:07;;;;;;;3.47;1.40;;;11.90;99.90;;;;;;5051016;28;20518;-70
2021/10/06 00:25:33;;;;;;;1.73;0.97;;;11.90;99.90;;;;;;5035080;28;20461;-70
2021/10/06 00:27:59;;;;;;;2.20;1.37;;;11.90;99.90;;;;;;5034214;28;20476;-70
2021/10/06 00:30:25;;;;;;;1.70;1.10;;;11.90;99.90;;;;;;5048531;28;20246;-70
2021/10/06 00:32:50;;;;;;;1.00;1.00;;;11.90;99.90;;;;;;5031138;28;20822;-69
2021/10/06 00:35:16;;;;;;;2.20;1.27;;;11.90;99.90;;;;;;5042158;28;20276;-70
2021/10/06 00:37:42;;;;;;;1.17;1.07;;;11.90;99.90;;;;;;5028893;28;20215;-70
2021/10/06 00:40:08;;;;;;;3.23;1.17;;;11.90;99.90;;;;;;5051428;28;20288;-70
2021/10/06 00:42:33;;;;;;;1.20;1.10;;;11.90;99.90;;;;;;5050596;28;20245;-70
2021/10/06 00:44:59;;;;;;;1.80;1.70;;;11.80;99.90;;;;;;5070145;28;20482;-70
2021/10/06 00:47:25;;;;;;;1.53;1.10;;;11.80;99.90;;;;;;5051457;28;20289;-70
2021/10/06 00:49:51;;;;;;;1.60;1.40;;;11.80;99.90;;;;;;5037030;28;20219;-70
2021/10/06 00:52:16;;;;;;;1.90;1.17;;;11.80;99.90;;;;;;5014838;28;20281;-70
2021/10/06 00:54:43;;;;;;;7.83;1.50;;;11.80;99.90;;;;;;5023100;28;20219;-70
2021/10/06 00:57:10;;;;;;;1.47;1.23;;;11.70;99.90;;;;;;5051623;28;20227;-71
2021/10/06 00:59:36;;;;;;;1.80;1.37;;;11.70;99.90;;;;;;5069661;28;20480;-70
2021/10/06 01:02:02;;;;;;;2.20;1.30;;;11.70;99.90;;;;;;5050786;28;20454;-70
2021/10/06 01:04:28;;;;;;;2.10;1.20;;;11.70;99.90;;;;;;5046456;28;20211;-70
2021/10/06 01:06:54;;;;;;;3.47;2.10;;;11.60;99.90;;;;;;5051687;28;20454;-70
2021/10/06 01:09:24;;;;;;;1.13;1.00;;;11.60;99.90;;;;;;5069911;28;20314;-70
2021/10/06 01:11:51;;;;;;;2.17;1.63;;;11.60;99.90;;;;;;5046629;28;20503;-70
2021/10/06 01:14:17;;;;;;;2.10;1.00;;;11.60;99.90;;;;;;5048473;28;20449;-70
2021/10/06 01:16:42;;;;;;;2.43;1.33;;;11.60;99.90;;;;;;5015049;28;20458;-70
2021/10/06 01:19:19;;;;;;;1.40;1.30;;;11.60;99.90;;;;;;5068666;28;20215;-70
2021/10/06 01:21:45;;;;;;;2.40;1.23;;;11.60;99.90;;;;;;5033127;28;20284;-70
2021/10/06 01:24:10;;;;;;;1.33;1.23;;;11.60;99.90;;;;;;5043025;28;20453;-70
2021/10/06 01:26:36;;;;;;;2.33;1.30;;;11.60;99.90;;;;;;5069041;28;20461;-70
2021/10/06 01:29:02;;;;;;;2.10;1.23;;;11.60;99.90;;;;;;5051654;28;20219;-70
2021/10/06 01:31:27;;;;;;;1.47;1.33;;;11.60;99.90;;;;;;5051165;28;20221;-70
2021/10/06 01:33:53;;;;;;;1.00;1.00;;;11.60;99.90;;;;;;5072909;28;20219;-70
2021/10/06 01:36:19;;;;;;;1.50;1.40;;;11.60;99.90;;;;;;5047511;28;20238;-70
2021/10/06 01:38:45;;;;;;;1.43;1.33;;;11.70;99.90;;;;;;5054044;28;20512;-70
2021/10/06 01:41:11;;;;;;;2.53;1.20;;;11.70;99.90;;;;;;5045807;28;20621;-70
2021/10/06 01:43:36;;;;;;;1.57;1.47;;;11.70;99.90;;;;;;5051707;28;20212;-70
2021/10/06 01:46:02;;;;;;;4.90;1.60;;;11.70;99.90;;;;;;5035240;28;20227;-69
2021/10/06 01:48:28;;;;;;;1.90;1.47;;;11.70;99.90;;;;;;5034854;28;20216;-70
2021/10/06 01:50:54;;;;;;;2.90;1.27;;;11.70;99.90;;;;;;5072886;28;20231;-70
2021/10/06 01:53:19;;;;;;;2.70;1.40;;;11.80;99.90;;;;;;5029707;28;20459;-70
2021/10/06 01:55:45;;;;;;;2.27;2.07;;;11.80;99.90;;;;;;5054619;28;20229;-70
2021/10/06 01:58:14;;;;;;;2.37;2.17;;;11.80;99.90;;;;;;5037495;28;20230;-69
2021/10/06 02:00:43;;;;;;;1.67;1.57;;;11.80;99.90;;;;;;5048405;28;20230;-70
2021/10/06 02:03:09;;;;;;;1.43;1.33;;;11.80;99.90;;;;;;5053442;28;20460;-69
2021/10/06 02:05:34;;;;;;;7.90;2.03;;;11.80;99.90;;;;;;5018150;28;20458;-70
2021/10/06 02:08:04;;;;;;;2.10;1.60;;;11.80;99.90;;;;;;5041323;28;20246;-70
2021/10/06 02:10:31;;;;;;;7.23;2.17;;;11.80;99.90;;;;;;5059472;28;20227;-71
2021/10/06 02:12:58;;;;;;;1.60;1.50;;;11.80;99.90;;;;;;5021542;28;20995;-70
2021/10/06 02:15:24;;;;;;;5.20;1.57;;;11.80;99.90;;;;;;5042796;28;21004;-70
2021/10/06 02:17:51;;;;;;;5.03;1.97;;;11.80;99.90;;;;;;5048321;28;20465;-70
2021/10/06 02:20:17;;;;;;;3.20;1.70;;;11.80;99.90;;;;;;5063308;28;20453;-70
2021/10/06 02:22:43;;;;;;;1.83;1.73;;;11.80;99.90;;;;;;5032599;28;20479;-69
2021/10/06 02:25:09;;;;;;;3.40;1.70;;;11.80;99.90;;;;;;5045799;28;20528;-70
2021/10/06 02:27:35;;;;;;;2.07;1.90;;;11.80;99.90;;;;;;5050931;28;20512;-70
2021/10/06 02:30:01;;;;;;;1.77;1.67;;;11.70;99.90;;;;;;5045677;28;20898;-69
2021/10/06 02:32:27;;;;;;;1.60;1.50;;;11.80;99.90;;;;;;5031863;28;20711;-70
2021/10/06 02:34:52;;;;;;;2.10;1.50;;;11.80;99.90;;;;;;5040197;28;20481;-70
2021/10/06 02:37:18;;;;;;;2.33;2.17;;;11.80;99.90;;;;;;5037458;28;20243;-70
2021/10/06 02:39:43;;;;;;;2.23;2.00;;;11.80;99.90;;;;;;5037165;28;20253;-70
2021/10/06 02:42:09;;;;;;;2.80;2.47;;;11.80;99.90;;;;;;5041685;28;20216;-70
2021/10/06 02:44:35;;;;;;;2.47;2.10;;;11.80;99.90;;;;;;5062201;28;20239;-70
2021/10/06 02:47:02;;;;;;;3.43;2.53;;;11.80;99.90;;;;;;5054028;28;20219;-68
2021/10/06 02:49:28;;;;;;;4.07;1.80;;;11.80;99.90;;;;;;5036817;28;20268;-70
2021/10/06 02:51:54;;;;;;;2.60;1.97;;;11.80;99.90;;;;;;5051928;28;20485;-69
2021/10/06 02:54:19;;;;;;;1.50;1.40;;;11.80;99.90;;;;;;5045365;28;20290;-69
2021/10/06 02:56:45;;;;;;;1.80;1.50;;;11.80;99.90;;;;;;5063209;28;20352;-70
2021/10/06 02:59:10;;;;;;;3.23;1.57;;;11.80;99.90;;;;;;5070275;28;20459;-69
2021/10/06 03:01:36;;;;;;;2.70;1.63;;;11.80;99.90;;;;;;5069149;28;20249;-70
2021/10/06 03:04:02;;;;;;;3.00;1.40;;;11.80;99.90;;;;;;5070720;28;20227;-70
2021/10/06 03:06:27;;;;;;;4.00;1.53;;;11.80;99.90;;;;;;5052179;28;20280;-69
2021/10/06 03:08:54;;;;;;;2.70;1.53;;;11.80;99.90;;;;;;5037169;28;20219;-70
2021/10/06 03:11:21;;;;;;;2.10;2.00;;;11.90;99.90;;;;;;5050319;28;20228;-70
2021/10/06 03:13:47;;;;;;;5.40;1.73;;;11.80;99.90;;;;;;5049258;28;20450;-70
2021/10/06 03:16:13;;;;;;;1.73;1.50;;;11.80;99.90;;;;;;5052215;28;20454;-70
2021/10/06 03:18:38;;;;;;;1.50;1.40;;;11.80;99.90;;;;;;5036899;28;20215;-70
2021/10/06 03:21:04;;;;;;;4.07;2.00;;;11.90;99.90;;;;;;5053495;28;20231;-70
2021/10/06 03:23:30;;;;;;;5.73;1.87;;;11.80;99.90;;;;;;5050624;28;20222;-70
2021/10/06 03:25:55;;;;;;;2.27;1.77;;;11.80;99.90;;;;;;5053180;28;20219;-70
2021/10/06 03:28:21;;;;;;;4.00;1.93;;;11.80;99.90;;;;;;5030142;28;20230;-70
2021/10/06 03:30:47;;;;;;;3.97;1.80;;;11.80;99.90;;;;;;5035075;28;20696;-70
2021/10/06 03:33:13;;;;;;;7.07;2.33;;;11.80;99.90;;;;;;5048782;28;20454;-70
2021/10/06 03:35:38;;;;;;;3.80;1.70;;;11.80;99.90;;;;;;5045942;28;20249;-70
2021/10/06 03:38:04;;;;;;;1.60;1.50;;;11.80;99.90;;;;;;5035383;28;20313;-70
2021/10/06 03:40:30;;;;;;;1.70;1.60;;;11.80;99.90;;;;;;5040590;28;20230;-70
2021/10/06 03:42:55;;;;;;;2.10;1.93;;;11.80;99.90;;;;;;5046803;28;20705;-69
2021/10/06 03:45:21;;;;;;;3.33;1.90;;;11.80;99.90;;;;;;5052300;28;20265;-70
2021/10/06 03:47:47;;;;;;;4.00;1.83;;;11.80;99.90;;;;;;5052298;28;20250;-70
2021/10/06 03:50:14;;;;;;;3.03;1.80;;;11.80;99.90;;;;;;5052560;28;20485;-70
2021/10/06 03:52:41;;;;;;;1.53;1.30;;;11.80;99.90;;;;;;5041734;28;20265;-70
2021/10/06 03:55:08;;;;;;;4.53;2.30;;;11.80;99.90;;;;;;5068577;28;20465;-70
2021/10/06 03:57:34;;;;;;;2.10;1.93;;;11.80;99.90;;;;;;5020419;28;21025;-70
2021/10/06 04:00:00;;;;;;;6.17;2.43;;;11.90;99.90;;;;;;5035516;28;20540;-70
2021/10/06 04:02:26;;;;;;;4.20;2.40;;;11.80;99.90;;;;;;5034122;28;20544;-70
2021/10/06 04:04:52;;;;;;;2.20;1.63;;;11.80;99.90;;;;;;5037565;28;20211;-70
2021/10/06 04:07:17;;;;;;;2.27;1.57;;;11.80;99.90;;;;;;5033648;28;20610;-70
2021/10/06 04:09:43;;;;;;;4.20;2.87;;;11.80;99.90;;;;;;5055214;28;20228;-70
2021/10/06 04:12:09;;;;;;;5.83;1.80;;;11.70;99.90;;;;;;5031669;28;20270;-69
2021/10/06 04:14:34;;;;;;;3.17;1.90;;;11.70;99.90;;;;;;5051822;28;20337;-70
2021/10/06 04:17:00;;;;;;;2.90;2.43;;;11.60;99.90;;;;;;5051184;28;20222;-69
2021/10/06 04:19:25;;;;;;;2.13;1.97;;;11.60;99.90;;;;;;5048160;28;20234;-70
2021/10/06 04:21:51;;;;;;;1.90;1.77;;;11.60;99.90;;;;;;5016534;28;20243;-69
2021/10/06 04:24:17;;;;;;;1.97;1.80;;;11.60;99.90;;;;;;5042143;28;20223;-69
2021/10/06 04:26:42;;;;;;;5.80;2.30;;;11.50;99.90;;;;;;5069746;28;20282;-70
2021/10/06 04:29:08;;;;;;;2.77;2.23;;;11.50;99.90;;;;;;5059635;28;20687;-71
2021/10/06 04:31:34;;;;;;;2.60;1.93;;;11.50;99.90;;;;;;5034010;28;20674;-70
2021/10/06 04:34:00;;;;;;;3.63;2.20;;;11.50;99.90;;;;;;5069142;28;20272;-70
2021/10/06 04:36:25;;;;;;;1.93;1.73;;;11.60;99.90;;;;;;5031762;28;20247;-70
2021/10/06 04:38:51;;;;;;;5.83;1.60;;;11.60;99.90;;;;;;5048760;28;20223;-70
2021/10/06 04:41:17;;;;;;;1.97;1.73;;;11.60;99.90;;;;;;5048743;28;20235;-70
2021/10/06 04:43:43;;;;;;;2.40;2.10;;;11.60;99.90;;;;;;5060096;28;20239;-70
2021/10/06 04:46:08;;;;;;;3.23;1.90;;;11.60;99.90;;;;;;5045845;28;20807;-70
2021/10/06 04:48:34;;;;;;;7.47;2.10;;;11.70;99.90;;;;;;5050241;28;20226;-70
2021/10/06 04:51:00;;;;;;;6.03;2.20;;;11.70;99.90;;;;;;5036225;28;20235;-69
2021/10/06 04:53:26;;;;;;;3.23;1.97;;;11.70;99.90;;;;;;5018068;28;20222;-69
2021/10/06 04:55:51;;;;;;;3.30;2.30;;;11.70;99.90;;;;;;5036049;28;20223;-70
2021/10/06 04:58:17;;;;;;;4.53;2.10;;;11.70;99.90;;;;;;5044970;28;20241;-70
2021/10/06 05:00:43;;;;;;;9.90;2.93;;;11.70;99.90;;;;;;5033140;28;20223;-70
2021/10/06 05:03:11;;;;;;;2.43;2.23;;;11.60;99.90;;;;;;5033845;28;20365;-70
2021/10/06 05:05:38;;;;;;;8.00;2.83;;;11.50;99.90;;;;;;5031333;28;20227;-70
2021/10/06 05:08:04;;;;;;;3.23;2.40;;;11.50;99.90;;;;;;5054874;28;20461;-70
2021/10/06 05:10:30;;;;;;;4.80;2.67;;;11.40;99.90;;;;;;5037582;28;20603;-70
2021/10/06 05:12:56;;;;;;;7.30;3.70;;;11.30;99.90;;;;;;5037997;28;20516;-70
2021/10/06 05:15:22;;;;;;;4.20;2.70;;;11.30;99.90;;;;;;5038674;28;20836;-70
2021/10/06 05:17:47;;;;;;;2.60;2.40;;;11.30;99.90;;;;;;5054726;28;20223;-70
2021/10/06 05:20:13;;;;;;;2.80;2.50;;;11.30;99.90;;;;;;5038675;28;20716;-70
2021/10/06 05:22:39;;;;;;;4.47;2.83;;;11.30;99.90;;;;;;5044604;28;20220;-69
2021/10/06 05:25:05;;;;;;;3.77;2.60;;;11.30;99.90;;;;;;5037273;28;20219;-70
2021/10/06 05:27:31;;;;;;;3.33;2.80;;;11.20;99.90;;;;;;5034209;28;20306;-71
2021/10/06 05:29:57;;;;;;;3.10;2.90;;;11.20;99.90;;;;;;5035306;28;20602;-70
2021/10/06 05:32:24;;;;;;;3.57;2.70;;;11.20;99.90;;;;;;5053348;28;20233;-71
2021/10/06 05:34:50;;;;;;;4.60;3.20;;;11.20;99.90;;;;;;5070597;28;20511;-72
2021/10/06 05:37:15;;;;;;;4.53;3.00;;;11.20;99.90;;;;;;5020590;28;20477;-72
2021/10/06 05:39:41;;;;;;;6.03;3.10;;;11.20;99.90;;;;;;5039740;28;20547;-72
2021/10/06 05:42:07;;;;;;;4.00;2.90;;;11.10;99.90;;;;;;5037631;28;20234;-71
2021/10/06 05:44:33;;;;;;;5.53;3.03;;;11.10;99.90;;;;;;5052094;28;20453;-73
2021/10/06 05:46:59;;;;;;;5.70;2.77;;;11.10;99.90;;;;;;5036335;28;20227;-72
2021/10/06 05:49:24;;;;;;;4.43;3.07;;;11.10;99.90;;;;;;5036541;28;20310;-72
2021/10/06 05:51:50;;;;;;;3.00;2.70;;;11.10;99.90;;;;;;5069077;28;20219;-72
2021/10/06 05:54:16;;;;;;;2.93;2.67;;;11.10;99.90;;;;;;5053298;28;20705;-72
2021/10/06 05:56:41;;;;;;;5.57;3.07;;;11.10;99.90;;;;;;5036180;28;20270;-72
2021/10/06 05:59:07;;;;;;;4.70;2.60;;;11.10;99.90;;;;;;5034875;28;20291;-72
2021/10/06 06:01:33;;;;;;;7.30;2.70;;;11.10;99.90;;;;;;5031182;28;20310;-71
2021/10/06 06:03:58;;;;;;;6.07;3.80;;;11.10;99.90;;;;;;5016725;28;20291;-72
2021/10/06 06:06:24;;;;;;;7.23;3.00;;;11.10;99.90;;;;;;5037368;28;20219;-72
2021/10/06 06:08:50;;;;;;;3.43;3.10;;;11.00;99.90;;;;;;5040199;28;20581;-72
2021/10/06 06:11:16;;;;;;;5.57;3.20;;;11.10;99.90;;;;;;5033472;28;20263;-70
2021/10/06 06:13:42;;;;;;;4.17;2.73;;;11.10;99.90;;;;;;5031336;28;20227;-71
2021/10/06 06:16:07;;;;;;;5.50;2.87;;;11.10;99.90;;;;;;5067353;28;20468;-71
2021/10/06 06:18:33;;;;;;;2.93;2.70;;;11.10;99.90;;;;;;5034430;28;20241;-70
2021/10/06 06:20:59;;;;;;;6.13;3.27;;;11.10;99.90;;;;;;5036251;28;20226;-71
2021/10/06 06:23:26;;;;;;;3.23;2.93;;;11.10;99.90;;;;;;5023479;28;20219;-70
2021/10/06 06:25:51;;;;;;;6.37;3.20;;;11.10;99.90;;;;;;5034269;28;20223;-70
2021/10/06 06:28:18;;;;;;;3.77;2.87;;;11.10;99.90;;;;;;5050678;28;20465;-71
2021/10/06 06:30:44;;;;;;;4.90;2.97;;;11.10;99.90;;;;;;5033749;28;20230;-70
2021/10/06 06:33:09;;;;;;;4.23;2.33;;;11.20;99.90;;;;;;5047416;28;20450;-70
2021/10/06 06:35:36;;;;;;;6.37;2.67;;;11.10;99.90;;;;;;5018239;28;20643;-71
2021/10/06 06:38:01;;;;;;;3.60;2.73;;;11.20;99.90;;;;;;5048879;28;20303;-69
2021/10/06 06:40:27;;;;;;;3.80;2.77;;;11.20;99.90;;;;;;5030834;28;20530;-71
2021/10/06 06:42:53;;;;;;;3.47;2.97;;;11.20;99.90;;;;;;5044679;28;20694;-71
2021/10/06 06:45:18;;;;;;;8.87;3.93;;;11.20;99.90;;;;;;5035468;28;20226;-70
2021/10/06 06:47:44;;;;;;;3.57;2.97;;;11.20;99.90;;;;;;5051405;28;20226;-71
2021/10/06 06:50:15;;;;;;;2.60;2.20;;;11.20;99.90;;;;;;5052215;28;20284;-71
2021/10/06 06:52:41;;;;;;;3.47;2.27;;;11.20;99.90;;;;;;5050434;28;20227;-70
2021/10/06 06:55:07;;;;;;;3.03;2.60;;;11.20;99.90;;;;;;5052473;28;20446;-70
2021/10/06 06:57:32;;;;;;;5.13;2.60;;;11.20;99.90;;;;;;5050134;28;21031;-71
2021/10/06 06:59:58;;;;;;;3.67;2.20;;;11.20;99.90;;;;;;5033006;28;20302;-71
2021/10/06 07:02:24;;;;;;;6.00;2.80;;;11.20;99.90;;;;;;5068661;28;20281;-71
2021/10/06 07:04:50;;;;;;;4.07;2.93;;;11.20;99.90;;;;;;5068619;28;20242;-70
2021/10/06 07:07:16;;;;;;;4.73;2.93;;;11.20;99.90;;;;;;5049712;28;20211;-71
2021/10/06 07:09:49;;;;;;;2.73;2.53;;;11.20;99.90;;;;;;5028559;28;20519;-71
2021/10/06 07:12:17;;;;;;;8.47;2.77;;;11.20;99.90;;;;;;5030528;28;20527;-70
2021/10/06 07:14:43;;;;;;;3.33;2.70;;;11.30;99.90;;;;;;5033856;28;20456;-71
2021/10/06 07:17:09;;;;;;;8.60;3.37;;;11.30;99.90;;;;;;5067685;28;20458;-71
2021/10/06 07:19:35;;;;;;;6.47;3.00;;;11.30;99.90;;;;;;5050446;28;20499;-71
2021/10/06 07:22:01;;;;;;;3.57;2.67;;;11.30;99.90;;;;;;5033744;28;20217;-71
2021/10/06 07:24:26;;;;;;;4.33;2.73;;;11.40;99.90;;;;;;5033898;28;20216;-71
2021/10/06 07:26:52;;;;;;;5.00;2.50;;;11.40;99.90;;;;;;5050037;28;20223;-71
2021/10/06 07:29:18;;;;;;;3.90;2.73;;;11.40;99.90;;;;;;5051423;28;20226;-70
2021/10/06 07:31:44;;;;;;;3.53;2.10;;;11.40;99.90;;;;;;5032781;28;20225;-70
2021/10/06 07:34:09;;;;;;;2.20;2.10;;;11.40;99.90;;;;;;5050262;28;20238;-71
2021/10/06 07:36:35;;;;;;;4.37;1.97;;;11.40;99.90;;;;;;5055124;28;20225;-71
2021/10/06 07:39:02;;;;;;;2.17;1.97;;;11.40;99.90;;;;;;5054715;28;20275;-71
2021/10/06 07:41:27;;;;;;;3.07;2.30;;;11.40;99.90;;;;;;5042941;28;20454;-71
2021/10/06 07:43:54;;;;;;;5.83;2.20;;;11.40;99.90;;;;;;5044898;28;20533;-71
2021/10/06 07:46:20;;;;;;;2.83;1.97;;;11.40;99.90;;;;;;5035543;28;20521;-70
2021/10/06 07:48:45;;;;;;;5.10;2.20;;;11.40;99.90;;;;;;5036064;28;20223;-71
2021/10/06 07:51:11;;;;;;;3.70;2.30;;;11.50;99.90;;;;;;5035255;28;20281;-70
2021/10/06 07:53:37;;;;;;;2.03;1.83;;;11.50;99.90;;;;;;5020492;28;20236;-71
2021/10/06 07:56:03;;;;;;;6.73;2.13;;;11.50;99.90;;;;;;5021355;28;20492;-71
2021/10/06 07:58:29;;;;;;;4.50;2.67;;;11.50;99.90;;;;;;5048670;28;20215;-71
2021/10/06 08:00:54;;;;;;;6.50;2.30;;;11.60;99.90;;;;;;5051399;28;20500;-71
2021/10/06 08:03:20;;;;;;;3.50;2.47;;;11.70;99.90;;;;;;5063282;28;20236;-71
2021/10/06 08:05:47;;;;;;;4.43;2.03;;;11.70;99.90;;;;;;5030818;28;20247;-71
2021/10/06 08:08:13;;;;;;;5.13;2.37;;;11.80;99.90;;;;;;5037528;28;20445;-71
2021/10/06 08:10:40;;;;;;;6.70;2.50;;;11.90;99.90;;;;;;5048641;28;21531;-71
2021/10/06 08:13:05;;;;;;;3.83;2.37;;;12.00;99.90;;;;;;5031080;28;20477;-71
2021/10/06 08:15:32;;;;;;;3.63;2.83;;;12.10;99.90;;;;;;5031004;28;20215;-71
2021/10/06 08:17:58;;;;;;;3.37;1.67;;;12.20;99.90;;;;;;5049787;28;20729;-70
2021/10/06 08:20:24;;;;;;;4.57;1.80;;;12.30;99.90;;;;;;5033763;28;20456;-71
2021/10/06 08:22:50;;;;;;;2.03;1.60;;;12.40;99.90;;;;;;5041011;28;20446;-70
2021/10/06 08:25:16;;;;;;;2.77;2.07;;;12.40;99.90;;;;;;5031983;28;20743;-70
2021/10/06 08:27:41;;;;;;;4.73;1.93;;;12.50;99.90;;;;;;5052604;28;20259;-71
2021/10/06 08:30:07;;;;;;;3.23;1.70;;;12.60;99.90;;;;;;5029289;28;20718;-71
2021/10/06 08:32:33;;;;;;;2.07;1.50;;;12.70;99.90;;;;;;5036585;28;20224;-71
2021/10/06 08:34:59;;;;;;;5.30;1.93;;;12.80;99.90;;;;;;5024420;28;20460;-71
2021/10/06 08:37:24;;;;;;;1.83;1.67;;;12.90;99.90;;;;;;5033332;28;20310;-71
2021/10/06 08:39:50;;;;;;;1.93;1.73;;;13.00;99.90;;;;;;5049639;28;20222;-71
2021/10/06 08:42:16;;;;;;;2.50;1.63;;;13.00;99.90;;;;;;5029893;28;20234;-71
2021/10/06 08:44:48;;;;;;;1.53;1.43;;;13.00;99.90;;;;;;5049508;28;20231;-70
2021/10/06 08:47:14;;;;;;;1.97;1.30;;;13.00;99.90;;;;;;5068694;28;20767;-70
2021/10/06 08:49:42;;;;;;;4.40;1.67;;;13.00;99.90;;;;;;5034945;28;20498;-71
2021/10/06 08:52:07;;;;;;;1.30;1.30;;;13.00;99.90;;;;;;5047737;28;20247;-71
2021/10/06 08:54:33;;;;;;;4.57;1.87;;;13.00;99.90;;;;;;5051643;28;20491;-71
2021/10/06 08:56:59;;;;;;;6.00;1.90;;;13.00;99.90;;;;;;5033292;28;20328;-71
2021/10/06 08:59:25;;;;;;;1.90;1.50;;;13.00;99.90;;;;;;5065941;28;20230;-71
2021/10/06 09:01:50;;;;;;;2.83;1.80;;;13.00;99.90;;;;;;5031302;28;20447;-70
2021/10/06 09:04:16;;;;;;;2.90;1.50;;;13.00;99.90;;;;;;5034976;28;20237;-70
2021/10/06 09:06:45;;;;;;;2.67;1.33;;;13.00;99.90;;;;;;5067570;28;20249;-71
2021/10/06 09:09:15;;;;;;;2.90;1.50;;;12.90;99.90;;;;;;5037742;28;20224;-70
2021/10/06 09:11:43;;;;;;;1.53;1.40;;;13.00;99.90;;;;;;5039704;28;20464;-70
2021/10/06 09:14:09;;;;;;;3.67;1.57;;;13.00;99.90;;;;;;5015306;28;20454;-70
2021/10/06 09:16:37;;;;;;;1.10;1.07;;;13.10;99.90;;;;;;5015168;28;20501;-71
2021/10/06 09:19:04;;;;;;;1.83;1.30;;;13.10;99.90;;;;;;5068396;28;20234;-71
2021/10/06 09:21:32;;;;;;;1.57;1.20;;;13.10;99.90;;;;;;5030018;28;20462;-70
2021/10/06 09:23:58;;;;;;;9.13;1.60;;;13.10;99.90;;;;;;5049802;28;20524;-70
2021/10/06 09:26:24;;;;;;;2.80;1.40;;;13.20;99.90;;;;;;5033878;28;20552;-70
2021/10/06 09:28:52;;;;;;;2.47;1.60;;;13.20;99.90;;;;;;5026945;28;20218;-71
2021/10/06 09:31:25;;;;;;;1.20;1.10;;;13.20;99.90;;;;;;5049139;28;20309;-70
2021/10/06 09:33:57;;;;;;;1.07;0.97;;;13.30;99.90;;;;;;5066777;28;20469;-72
2021/10/06 09:36:40;;;;;;;1.53;1.20;;;13.30;99.90;;;;;;5034193;28;20473;-73
2021/10/06 09:39:08;;;;;;;6.60;1.70;;;13.30;99.90;;;;;;5062369;28;20457;-70
2021/10/06 09:41:39;;;;;;;2.03;1.90;;;13.40;99.90;;;;;;5065911;28;20457;-70
2021/10/06 09:44:25;;;;;;;4.20;1.47;;;13.40;99.90;;;;;;5034428;28;20453;-71
2021/10/06 09:46:52;;;;;;;1.30;1.20;;;13.40;99.90;;;;;;5050201;28;20445;-71
2021/10/06 09:49:38;;;;;;;1.73;1.10;;;13.40;99.90;;;;;;5046339;28;21037;-71
2021/10/06 09:52:13;;;;;;;1.20;1.20;;;13.40;99.90;;;;;;5030101;28;20442;-71
2021/10/06 09:54:40;;;;;;;4.97;1.60;;;13.40;99.90;;;;;;5032126;28;20481;-71
2021/10/06 09:57:05;;;;;;;3.50;1.20;;;13.50;99.90;;;;;;5032261;28;20453;-71
2021/10/06 09:59:32;;;;;;;1.93;1.40;;;13.50;99.90;;;;;;5024439;28;20484;-69
2021/10/06 10:01:59;;;;;;;2.57;1.27;;;13.50;99.90;;;;;;5032501;28;20223;-71
2021/10/06 10:04:27;;;;;;;1.83;1.40;;;13.40;99.90;;;;;;5034272;28;20465;-71
2021/10/06 10:06:54;;;;;;;3.63;1.30;;;13.40;99.90;;;;;;5031751;28;20448;-71
2021/10/06 10:09:20;;;;;;;1.90;1.30;;;13.40;99.90;;;;;;5050048;28;20461;-71
2021/10/06 10:11:47;;;;;;;3.20;1.70;;;13.40;99.90;;;;;;5065481;28;20461;-71
2021/10/06 10:14:13;;;;;;;4.00;1.67;;;13.40;99.90;;;;;;5039904;28;20541;-70
2021/10/06 10:16:40;;;;;;;5.80;1.50;;;13.40;99.90;;;;;;5032322;28;20449;-71
2021/10/06 10:19:12;;;;;;;4.10;2.30;;;13.30;99.90;;;;;;5068765;28;20468;-69
2021/10/06 10:21:42;;;;;;;1.53;1.43;;;13.40;99.90;;;;;;5025774;28;20454;-70
2021/10/06 10:24:12;;;;;;;4.33;2.00;;;13.30;99.90;;;;;;5046235;28;20457;-70
2021/10/06 10:26:57;;;;;;;3.80;1.60;;;13.40;99.90;;;;;;5048823;28;20462;-70
2021/10/06 10:29:54;;;;;;;1.73;1.60;;;13.30;99.90;;;;;;5048694;28;20453;-71
2021/10/06 10:32:26;;;;;;;3.13;2.00;;;13.30;99.90;;;;;;5048016;28;20476;-71
2021/10/06 10:34:57;;;;;;;5.13;2.83;;;13.20;99.90;;;;;;5041232;28;20453;-71
2021/10/06 10:37:51;;;;;;;2.00;1.80;;;13.20;99.90;;;;;;5040106;28;20464;-71
2021/10/06 10:40:35;;;;;;;4.80;2.00;;;13.20;99.90;;;;;;5056646;28;20462;-70
2021/10/06 10:43:00;;;;;;;5.10;2.00;;;13.20;99.90;;;;;;5026513;28;20458;-71
2021/10/06 10:45:59;;;;;;;2.70;1.33;;;13.20;99.90;;;;;;5050023;28;20457;-70
2021/10/06 10:48:28;;;;;;;3.90;2.00;;;13.20;99.90;;;;;;5064171;28;20264;-71
2021/10/06 10:50:54;;;;;;;2.30;2.10;;;13.20;99.90;;;;;;5048731;28;20461;-71
2021/10/06 10:53:51;;;;;;;2.47;2.27;;;13.30;99.90;;;;;;5048850;28;20981;-72
2021/10/06 10:56:25;;;;;;;2.63;2.43;;;13.30;99.90;;;;;;5029241;28;20238;-70
2021/10/06 10:59:08;;;;;;;2.30;2.10;;;13.30;99.90;;;;;;5028850;28;20469;-72
2021/10/06 11:01:45;;;;;;;4.60;2.63;;;13.30;99.90;;;;;;5043840;28;20541;-70
2021/10/06 11:04:20;;;;;;;4.10;2.63;;;13.30;99.90;;;;;;5061206;28;20460;-71
2021/10/06 11:06:49;;;;;;;4.20;2.83;;;13.30;99.90;;;;;;5049489;28;20485;-71
2021/10/06 11:09:30;;;;;;;4.67;2.60;;;13.30;99.90;;;;;;5030132;28;20461;-71
2021/10/06 11:12:18;;;;;;;3.23;2.57;;;13.30;99.90;;;;;;5047451;28;20457;-71
2021/10/06 11:14:45;;;;;;;4.93;2.30;;;13.30;99.90;;;;;;5058068;28;20881;-71
2021/10/06 11:17:19;;;;;;;3.70;2.87;;;13.30;99.90;;;;;;5048951;28;20472;-71
2021/10/06 11:19:54;;;;;;;4.03;2.60;;;13.30;99.90;;;;;;5043477;28;20446;-71
2021/10/06 11:22:23;;;;;;;4.87;2.57;;;13.30;99.90;;;;;;5047268;28;20469;-71
2021/10/06 11:25:08;;;;;;;3.43;2.30;;;13.30;99.90;;;;;;5028734;28;20474;-70
2021/10/06 11:27:51;;;;;;;3.20;2.77;;;13.30;99.90;;;;;;5040041;28;20509;-71
2021/10/06 11:30:18;;;;;;;4.67;2.87;;;13.40;99.90;;;;;;5048048;28;20565;-71
2021/10/06 11:32:50;;;;;;;3.30;2.97;;;13.40;99.90;;;;;;5047295;28;20464;-71
2021/10/06 11:35:16;;;;;;;5.83;2.20;;;13.40;99.90;;;;;;5041809;28;20464;-70
2021/10/06 11:37:41;;;;;;;4.27;2.23;;;13.40;99.90;;;;;;5047011;28;20499;-71
2021/10/06 11:40:13;;;;;;;2.90;2.50;;;13.40;99.90;;;;;;5022123;28;20470;-70
2021/10/06 11:42:40;;;;;;;6.30;2.50;;;13.40;99.90;;;;;;5017073;28;20223;-71
2021/10/06 11:45:15;;;;;;;5.10;2.63;;;13.40;99.90;;;;;;5062764;28;20977;-71
2021/10/06 11:47:40;;;;;;;3.13;2.43;;;13.40;99.90;;;;;;5048729;28;20507;-73
2021/10/06 11:50:07;;;;;;;6.03;3.67;;;13.40;99.90;;;;;;5046404;28;20478;-69
2021/10/06 11:52:33;;;;;;;3.03;2.40;;;13.40;99.90;;;;;;5042133;28;20306;-71
2021/10/06 11:54:59;;;;;;;1.70;1.60;;;13.40;99.90;;;;;;5048735;28;20537;-70
2021/10/06 11:57:25;;;;;;;1.63;1.53;;;13.40;99.90;;;;;;5047615;28;20462;-72
2021/10/06 11:59:52;;;;;;;2.43;2.23;;;13.30;99.90;;;;;;5050302;28;20302;-71
2021/10/06 12:02:20;;;;;;;1.90;1.67;;;13.30;99.90;;;;;;5051340;28;20457;-70
2021/10/06 12:04:49;;;;;;;4.17;1.90;;;13.20;99.90;;;;;;5044717;28;20528;-71
2021/10/06 12:07:21;;;;;;;2.47;1.37;;;13.20;99.90;;;;;;5029361;28;20553;-71
2021/10/06 12:09:52;;;;;;;2.73;1.20;;;13.20;99.90;;;;;;5065238;28;20485;-71
2021/10/06 12:12:18;;;;;;;1.90;1.63;;;13.20;99.90;;;;;;5029403;28;20468;-70
2021/10/06 12:14:52;;;;;;;5.03;4.30;;;13.20;99.90;;;;;;5012632;28;20446;-71
2021/10/06 12:17:22;;;;;;;10.07;7.60;;;13.20;99.90;;;;;;5027945;28;20234;-70
2021/10/06 12:20:13;;;;;;;24.97;16.33;;;13.20;99.90;;;;;;5022313;28;20510;-71
2021/10/06 12:22:47;;;;;;;38.47;23.37;;;13.20;99.90;;;;;;5039672;28;20457;-71
2021/10/06 12:25:17;;;;;;;21.17;14.03;;;13.20;99.90;;;;;;5033870;28;20460;-71
2021/10/06 12:28:02;;;;;;;46.77;23.63;;;13.20;99.90;;;;;;5026683;28;20554;-71
2021/10/06 12:30:32;;;;;;;63.13;33.27;;;13.20;99.90;;;;;;5029541;28;20498;-71
2021/10/06 12:33:09;;;;;;;71.67;37.77;;;13.20;99.90;;;;;;5029494;28;20454;-71
2021/10/06 12:35:44;;;;;;;33.67;21.13;;;13.30;99.90;;;;;;5040467;28;20453;-71
2021/10/06 12:38:10;;;;;;;8.70;7.13;;;13.30;99.90;;;;;;5030964;28;20452;-71
2021/10/06 12:40:56;;;;;;;5.13;2.63;;;13.30;99.90;;;;;;5030438;28;20472;-71
2021/10/06 12:43:29;;;;;;;2.90;2.30;;;13.30;99.90;;;;;;5034765;28;20457;-71
2021/10/06 12:46:08;;;;;;;4.90;2.07;;;13.30;99.90;;;;;;5027773;28;20459;-72
2021/10/06 12:48:56;;;;;;;24.87;12.77;;;13.30;99.90;;;;;;5010901;28;20450;-71